Time;durP1;ratioP1;P1;durP2;ratioP2;P2;SDS_P1;SDS_P2;PMS_P1;PMS_P2;Temp;Humidity;BMP_temperature;BMP_pressure;BME280_temperature;BME280_humidity;BME280_pressure;Samples;Min_cycle;Max_cycle;Signal;HPM_P1;HPM_P2
2021/01/01 00:00:05;;;;;;;48.55;31.83;;;;;;;3.63;79.50;100331.34;10184181;28;20045;-66
2021/01/01 00:05:03;;;;;;;36.08;24.88;;;;;;;3.53;79.35;100327.63;10203943;28;20441;-67
2021/01/01 00:10:00;;;;;;;36.42;23.73;;;;;;;3.51;78.90;100329.00;10198167;28;20405;-66
2021/01/01 00:14:58;;;;;;;34.25;22.33;;;;;;;3.45;78.73;100336.31;10192181;28;20540;-65
2021/01/01 00:19:54;;;;;;;30.27;19.27;;;;;;;3.38;78.03;100325.81;10195155;28;20046;-66
2021/01/01 00:24:50;;;;;;;31.90;19.92;;;;;;;3.37;77.83;100328.81;10206840;28;20124;-66
2021/01/01 00:29:46;;;;;;;27.00;18.20;;;;;;;3.53;77.44;100337.63;10200770;28;20054;-67
2021/01/01 00:34:42;;;;;;;29.20;17.98;;;;;;;3.40;77.46;100339.06;10209536;28;20468;-68
2021/01/01 00:39:39;;;;;;;23.95;16.27;;;;;;;3.32;77.34;100342.34;10201530;28;20057;-67
2021/01/01 00:44:35;;;;;;;25.80;15.70;;;;;;;3.45;76.72;100347.13;10205411;28;20537;-68
2021/01/01 00:49:31;;;;;;;29.63;17.80;;;;;;;3.14;77.52;100347.28;10210259;28;20045;-66
2021/01/01 00:54:27;;;;;;;24.67;17.10;;;;;;;3.44;77.48;100342.81;10199998;28;20044;-68
2021/01/01 00:59:23;;;;;;;24.13;16.70;;;;;;;3.39;77.11;100337.44;10198328;28;20505;-69
2021/01/01 01:04:19;;;;;;;24.55;15.38;;;;;;;3.34;77.22;100334.75;10211643;28;20124;-68
2021/01/01 01:09:15;;;;;;;27.10;16.50;;;;;;;3.24;78.26;100330.22;10193772;28;20045;-69
2021/01/01 01:14:15;;;;;;;27.10;15.85;;;;;;;3.29;78.26;100329.38;10199532;28;20041;-67
2021/01/01 01:19:11;;;;;;;25.38;15.85;;;;;;;3.21;77.92;100332.69;10203691;28;20492;-68
2021/01/01 01:24:07;;;;;;;24.05;14.82;;;;;;;3.05;78.05;100331.94;10210570;28;20046;-67
2021/01/01 01:29:03;;;;;;;23.98;13.80;;;;;;;3.05;77.74;100331.94;10188817;28;20041;-69
2021/01/01 01:34:00;;;;;;;21.58;13.20;;;;;;;3.14;76.63;100335.69;10230591;28;20168;-68
2021/01/01 01:38:56;;;;;;;22.45;12.85;;;;;;;3.16;76.46;100336.22;10222564;28;20042;-69
2021/01/01 01:43:52;;;;;;;24.23;13.43;;;;;;;3.28;76.95;100341.28;10211851;28;20509;-66
2021/01/01 01:48:50;;;;;;;22.50;14.32;;;;;;;3.17;76.49;100345.94;10191384;28;20050;-67
2021/01/01 01:53:48;;;;;;;20.20;13.55;;;;;;;3.24;76.56;100351.84;10208578;28;20056;-65
2021/01/01 01:58:46;;;;;;;22.25;13.25;;;;;;;3.23;76.96;100341.31;10202235;28;20034;-67
2021/01/01 02:03:43;;;;;;;23.60;13.48;;;;;;;2.95;77.21;100354.41;10194524;28;20521;-68
2021/01/01 02:08:39;;;;;;;23.85;14.55;;;;;;;3.29;76.45;100354.50;10207322;28;20453;-66
2021/01/01 02:13:36;;;;;;;21.73;13.57;;;;;;;3.26;76.61;100355.06;10210078;28;20607;-66
2021/01/01 02:18:40;;;;;;;22.27;13.50;;;;;;;3.37;76.43;100361.25;10226583;28;20048;-66
2021/01/01 02:23:36;;;;;;;25.30;14.98;;;;;;;3.35;75.96;100361.50;10221148;28;20132;-68
2021/01/01 02:28:32;;;;;;;24.77;14.40;;;;;;;3.22;76.37;100366.72;10229271;28;20092;-68
2021/01/01 02:33:28;;;;;;;26.05;15.80;;;;;;;3.15;76.64;100362.41;10224498;28;20061;-65
2021/01/01 02:38:24;;;;;;;26.10;15.90;;;;;;;3.28;76.99;100357.50;10220344;28;20066;-65
2021/01/01 02:43:20;;;;;;;23.05;15.27;;;;;;;3.22;76.58;100366.72;10221631;28;20114;-68
2021/01/01 02:48:18;;;;;;;29.02;16.38;;;;;;;3.16;76.79;100372.13;10238772;28;20111;-68
2021/01/01 02:53:19;;;;;;;26.52;16.02;;;;;;;3.15;77.48;100367.00;10223055;28;20050;-66
2021/01/01 02:58:15;;;;;;;25.98;16.10;;;;;;;3.13;77.95;100372.69;10214624;28;20045;-65
2021/01/01 03:03:11;;;;;;;29.17;16.08;;;;;;;3.11;77.14;100369.47;10219502;28;20099;-65
2021/01/01 03:08:07;;;;;;;28.27;17.13;;;;;;;2.95;78.43;100366.00;10222620;28;20056;-65
2021/01/01 03:13:04;;;;;;;29.50;16.88;;;;;;;2.97;78.73;100368.44;10202610;28;20481;-65
2021/01/01 03:18:01;;;;;;;27.67;17.27;;;;;;;3.26;77.34;100365.06;10226907;28;20724;-67
2021/01/01 03:22:57;;;;;;;25.90;14.88;;;;;;;3.20;77.93;100360.78;10224626;28;20049;-68
2021/01/01 03:27:53;;;;;;;28.00;15.80;;;;;;;3.19;77.55;100369.97;10227273;28;20505;-68
2021/01/01 03:32:49;;;;;;;27.77;17.10;;;;;;;3.17;77.83;100362.94;10220012;28;20045;-66
2021/01/01 03:37:45;;;;;;;29.00;17.95;;;;;;;3.24;77.77;100362.63;10217199;28;20574;-67
2021/01/01 03:42:41;;;;;;;28.67;17.10;;;;;;;3.26;77.53;100370.47;10221989;28;20080;-71
2021/01/01 03:47:37;;;;;;;26.60;16.35;;;;;;;3.23;77.99;100361.03;10231910;28;20071;-67
2021/01/01 03:52:33;;;;;;;27.95;17.60;;;;;;;3.25;78.22;100363.44;10230388;28;20398;-67
2021/01/01 03:57:29;;;;;;;29.35;17.98;;;;;;;3.33;77.11;100365.59;10224298;28;20104;-67
2021/01/01 04:02:28;;;;;;;32.70;18.30;;;;;;;3.24;77.79;100367.25;10226271;28;20054;-67
2021/01/01 04:07:24;;;;;;;28.83;18.67;;;;;;;3.19;78.72;100369.97;10217004;28;20046;-66
2021/01/01 04:12:20;;;;;;;32.22;18.55;;;;;;;3.29;78.21;100369.91;10208295;28;20073;-67
2021/01/01 04:17:16;;;;;;;33.63;20.85;;;;;;;3.38;78.32;100376.34;10216778;28;20107;-66
2021/01/01 04:22:12;;;;;;;32.33;19.90;;;;;;;3.25;77.79;100363.44;10208223;28;20480;-66
2021/01/01 04:27:08;;;;;;;33.38;18.58;;;;;;;3.30;78.45;100372.34;10224413;28;20045;-67
2021/01/01 04:32:04;;;;;;;32.25;20.15;;;;;;;3.35;78.47;100368.81;10224438;28;20049;-67
2021/01/01 04:37:00;;;;;;;33.10;19.80;;;;;;;3.31;78.43;100373.94;10220228;28;20057;-66
2021/01/01 04:41:56;;;;;;;37.55;20.10;;;;;;;3.20;78.62;100371.56;10220560;28;20057;-66
2021/01/01 04:46:53;;;;;;;34.35;19.65;;;;;;;3.25;78.36;100374.25;10226700;28;20526;-66
2021/01/01 04:51:49;;;;;;;38.92;21.23;;;;;;;3.35;78.83;100369.63;10220145;28;20058;-66
2021/01/01 04:56:49;;;;;;;43.65;23.15;;;;;;;3.25;78.78;100371.53;10218945;28;20115;-66
2021/01/01 05:01:46;;;;;;;35.47;21.60;;;;;;;3.30;78.97;100372.34;10203220;28;20088;-66
2021/01/01 05:06:42;;;;;;;37.72;22.33;;;;;;;3.22;78.27;100375.63;10206978;28;20058;-69
2021/01/01 05:11:39;;;;;;;40.35;22.83;;;;;;;3.27;79.02;100377.47;10209684;28;20049;-66
2021/01/01 05:16:35;;;;;;;42.97;24.05;;;;;;;3.16;79.08;100390.25;10214772;28;20053;-67
2021/01/01 05:21:31;;;;;;;45.50;23.83;;;;;;;3.17;79.40;100384.53;10215902;28;20063;-67
2021/01/01 05:26:29;;;;;;;49.03;25.70;;;;;;;3.07;79.25;100390.00;10220689;28;20170;-67
2021/01/01 05:31:30;;;;;;;47.33;24.08;;;;;;;3.20;78.77;100387.78;10232119;28;20049;-66
2021/01/01 05:36:30;;;;;;;42.80;24.92;;;;;;;3.29;79.02;100396.94;10223048;28;20057;-66
2021/01/01 05:41:40;;;;;;;46.05;26.30;;;;;;;3.26;78.58;100392.09;10220482;28;20056;-67
2021/01/01 05:46:55;;;;;;;48.05;24.98;;;;;;;3.14;79.16;100398.63;10221484;28;20049;-66
2021/01/01 05:52:12;;;;;;;50.58;28.27;;;;;;;3.11;79.46;100401.06;10224925;28;20053;-66
2021/01/01 05:57:11;;;;;;;53.00;27.70;;;;;;;3.04;80.21;100412.16;10213788;28;20045;-66
2021/01/01 06:02:10;;;;;;;49.85;28.75;;;;;;;2.99;80.19;100414.88;10225825;28;20053;-66
2021/01/01 06:07:09;;;;;;;47.72;27.15;;;;;;;2.97;80.65;100417.06;10221777;28;20061;-66
2021/01/01 06:12:11;;;;;;;49.78;27.55;;;;;;;3.01;80.60;100418.09;10214391;28;20046;-66
2021/01/01 06:17:10;;;;;;;46.70;27.17;;;;;;;3.05;80.47;100419.19;10218696;28;20053;-66
2021/01/01 06:22:13;;;;;;;49.25;27.00;;;;;;;3.09;80.86;100428.34;10220600;28;20198;-66
2021/01/01 06:27:11;;;;;;;50.33;27.52;;;;;;;3.00;80.62;100438.09;10225518;28;20045;-66
2021/01/01 06:32:08;;;;;;;44.17;22.05;;;;;;;2.98;81.25;100451.06;10223180;28;20049;-66
2021/01/01 06:37:05;;;;;;;38.55;22.70;;;;;;;2.71;82.26;100456.78;10218095;28;20056;-66
2021/01/01 06:42:01;;;;;;;45.50;24.02;;;;;;;2.75;81.86;100457.84;10224693;28;20156;-66
2021/01/01 06:46:58;;;;;;;44.40;23.92;;;;;;;2.81;81.78;100456.78;10238424;28;20045;-66
2021/01/01 06:52:14;;;;;;;43.00;24.13;;;;;;;2.92;81.09;100457.56;10249313;28;20056;-67
2021/01/01 06:57:10;;;;;;;52.70;28.67;;;;;;;2.76;81.67;100464.06;10227921;28;20048;-67
2021/01/01 07:02:25;;;;;;;52.42;27.10;;;;;;;2.72;81.11;100458.41;10225706;28;20537;-67
2021/01/01 07:07:43;;;;;;;50.75;28.48;;;;;;;2.89;81.53;100464.31;10225906;28;20253;-68
2021/01/01 07:12:40;;;;;;;47.60;27.25;;;;;;;2.86;81.36;100470.28;10229895;28;20057;-67
2021/01/01 07:17:47;;;;;;;54.97;28.83;;;;;;;2.89;81.02;100477.81;10226445;28;20049;-67
2021/01/01 07:22:43;;;;;;;47.58;25.60;;;;;;;2.87;81.39;100476.47;10224295;28;20056;-67
2021/01/01 07:27:40;;;;;;;56.50;24.70;;;;;;;2.64;81.74;100489.44;10225463;28;20418;-67
2021/01/01 07:32:37;;;;;;;50.25;26.60;;;;;;;2.65;81.65;100496.47;10234090;28;20071;-68
2021/01/01 07:37:35;;;;;;;52.03;28.25;;;;;;;2.69;81.47;100497.56;10229253;28;20053;-66
2021/01/01 07:42:31;;;;;;;50.78;23.83;;;;;;;2.54;81.58;100494.84;10222602;28;20476;-68
2021/01/01 07:47:27;;;;;;;48.38;26.40;;;;;;;2.59;82.13;100505.66;10235993;28;20485;-67
2021/01/01 07:52:23;;;;;;;51.58;26.35;;;;;;;2.57;82.66;100510.50;10225344;28;20164;-67
2021/01/01 07:57:20;;;;;;;46.13;23.55;;;;;;;2.69;81.78;100512.94;10222670;28;20147;-67
2021/01/01 08:02:16;;;;;;;48.17;24.38;;;;;;;2.73;82.29;100512.13;10222619;28;20073;-67
2021/01/01 08:07:21;;;;;;;43.03;23.38;;;;;;;2.69;81.85;100518.31;10222230;28;20073;-67
2021/01/01 08:12:17;;;;;;;45.63;24.75;;;;;;;2.78;81.62;100526.69;10220363;28;20096;-67
2021/01/01 08:17:29;;;;;;;49.25;27.42;;;;;;;2.87;81.37;100535.88;10217649;28;20045;-66
2021/01/01 08:22:32;;;;;;;45.45;24.88;;;;;;;2.72;81.99;100534.81;10210286;28;20051;-66
2021/01/01 08:27:28;;;;;;;46.47;24.98;;;;;;;2.85;81.67;100538.84;10227884;28;20053;-65
2021/01/01 08:32:30;;;;;;;52.47;25.63;;;;;;;2.84;81.83;100531.03;10219577;28;20532;-67
2021/01/01 08:37:27;;;;;;;48.22;25.25;;;;;;;3.03;81.14;100528.59;10215716;28;20048;-67
2021/01/01 08:42:24;;;;;;;41.20;23.50;;;;;;;2.95;80.78;100538.06;10224295;28;20096;-66
2021/01/01 08:47:20;;;;;;;42.10;25.35;;;;;;;2.90;81.18;100556.94;10233520;28;20045;-67
2021/01/01 08:52:18;;;;;;;46.33;26.35;;;;;;;2.93;80.80;100557.22;10227470;28;20045;-66
2021/01/01 08:57:14;;;;;;;44.33;24.95;;;;;;;2.98;80.39;100561.81;10209399;28;20077;-66
2021/01/01 09:02:13;;;;;;;45.20;24.58;;;;;;;3.04;80.55;100557.19;10212438;28;20107;-67
2021/01/01 09:07:14;;;;;;;46.92;27.23;;;;;;;3.05;80.46;100559.63;10209149;28;20125;-66
2021/01/01 09:12:19;;;;;;;43.63;24.02;;;;;;;2.89;80.59;100568.84;10207314;28;20053;-67
2021/01/01 09:17:16;;;;;;;41.70;23.30;;;;;;;2.85;80.84;100570.44;10203673;28;20053;-67
2021/01/01 09:22:17;;;;;;;51.63;26.98;;;;;;;2.80;81.41;100571.25;10219648;28;20743;-67
2021/01/01 09:27:14;;;;;;;46.83;26.70;;;;;;;3.04;81.12;100579.66;10217243;28;20501;-68
2021/01/01 09:32:12;;;;;;;53.13;28.70;;;;;;;2.96;81.18;100577.47;10224035;28;20115;-68
2021/01/01 09:37:10;;;;;;;53.90;28.17;;;;;;;3.05;81.43;100580.44;10214324;28;20053;-67
2021/01/01 09:42:07;;;;;;;48.13;26.58;;;;;;;2.93;81.55;100583.44;10217381;28;20050;-68
2021/01/01 09:47:03;;;;;;;50.75;26.67;;;;;;;3.09;81.08;100582.34;10219800;28;20049;-67
2021/01/01 09:51:59;;;;;;;48.28;28.23;;;;;;;3.09;80.23;100590.44;10224956;28;20709;-68
2021/01/01 09:57:07;;;;;;;52.92;26.75;;;;;;;2.97;80.98;100589.91;10224252;28;20095;-68
2021/01/01 10:02:03;;;;;;;50.55;27.55;;;;;;;3.21;80.45;100589.38;10231681;28;20060;-67
2021/01/01 10:06:59;;;;;;;45.40;26.98;;;;;;;3.24;79.90;100588.81;10243793;28;20493;-68
2021/01/01 10:11:57;;;;;;;39.47;23.33;;;;;;;3.21;79.41;100584.75;10226307;28;20041;-68
2021/01/01 10:16:53;;;;;;;41.15;23.50;;;;;;;3.27;79.33;100593.66;10231051;28;20045;-68
2021/01/01 10:21:49;;;;;;;39.97;23.77;;;;;;;3.31;78.94;100600.16;10228503;28;20051;-68
2021/01/01 10:26:53;;;;;;;38.20;22.50;;;;;;;3.14;79.56;100595.84;10228134;28;20061;-67
2021/01/01 10:31:50;;;;;;;35.83;19.33;;;;;;;3.24;79.29;100594.22;10208125;28;20763;-66
2021/01/01 10:36:52;;;;;;;44.53;23.52;;;;;;;3.16;79.42;100599.09;10206351;28;20050;-66
2021/01/01 10:41:49;;;;;;;44.05;24.48;;;;;;;3.03;79.88;100594.22;10218952;28;20445;-66
2021/01/01 10:46:52;;;;;;;48.63;24.83;;;;;;;3.26;78.97;100602.84;10217195;28;20049;-66
2021/01/01 10:51:48;;;;;;;38.35;22.33;;;;;;;3.28;78.74;100600.69;10216458;28;20057;-65
2021/01/01 10:56:46;;;;;;;44.42;22.42;;;;;;;3.43;77.99;100591.75;10225646;28;20491;-66
2021/01/01 11:02:02;;;;;;;38.17;23.73;;;;;;;3.51;78.42;100593.91;10222825;28;20056;-68
2021/01/01 11:06:58;;;;;;;44.53;25.63;;;;;;;3.65;77.50;100580.63;10222266;28;20072;-67
2021/01/01 11:11:55;;;;;;;42.33;25.25;;;;;;;3.63;77.00;100582.81;10218803;28;20132;-66
2021/01/01 12:24:54;;;;;;;41.60;23.92;;;;;;;4.21;78.01;100564.16;10202037;28;20053;-65
2021/01/01 12:29:53;;;;;;;35.63;20.45;;;;;;;4.06;78.33;100561.53;10197035;28;20073;-64
2021/01/01 12:34:49;;;;;;;38.60;23.35;;;;;;;3.97;78.62;100562.13;10184607;28;20048;-66
2021/01/01 12:39:45;;;;;;;39.60;22.40;;;;;;;4.08;78.70;100562.06;10203996;28;20037;-67
2021/01/01 12:44:41;;;;;;;37.13;21.17;;;;;;;4.17;77.60;100563.91;10206408;28;20045;-67
2021/01/01 12:49:38;;;;;;;41.25;24.55;;;;;;;4.07;78.62;100563.16;10207560;28;20045;-67
2021/01/01 12:54:34;;;;;;;46.00;23.50;;;;;;;4.25;78.02;100559.81;10190702;28;20057;-67
2021/01/01 12:59:30;;;;;;;40.17;23.75;;;;;;;4.21;78.25;100570.38;10185390;28;20108;-67
2021/01/01 13:04:32;;;;;;;37.92;22.65;;;;;;;4.38;78.88;100564.59;10192191;28;20535;-68
2021/01/01 13:09:28;;;;;;;39.40;24.77;;;;;;;4.42;78.62;100565.66;10201878;28;20148;-67
2021/01/01 13:14:24;;;;;;;37.70;24.52;;;;;;;4.55;78.78;100568.81;10197468;28;20084;-66
2021/01/01 13:19:20;;;;;;;35.95;23.17;;;;;;;4.64;78.87;100567.13;10205001;28;20493;-68
2021/01/01 13:24:16;;;;;;;43.75;23.85;;;;;;;4.66;79.03;100558.75;10182068;28;20086;-67
2021/01/01 13:29:12;;;;;;;42.90;24.45;;;;;;;4.63;78.80;100573.66;10195971;28;20453;-66
2021/01/01 13:34:10;;;;;;;43.30;25.33;;;;;;;4.64;79.24;100567.13;10201710;28;20564;-66
2021/01/01 13:39:06;;;;;;;39.58;25.60;;;;;;;4.69;78.98;100569.00;10203117;28;20082;-67
2021/01/01 13:44:02;;;;;;;44.97;26.80;;;;;;;4.53;79.31;100571.03;10203914;28;20046;-68
2021/01/01 13:49:03;;;;;;;45.42;27.05;;;;;;;4.63;79.36;100570.94;10215787;28;20057;-68
2021/01/01 13:54:03;;;;;;;38.15;22.83;;;;;;;4.72;79.33;100569.25;10218123;28;20130;-66
2021/01/01 13:59:00;;;;;;;38.40;24.45;;;;;;;4.60;79.12;100572.31;10216595;28;20650;-66
2021/01/01 14:04:04;;;;;;;36.38;22.45;;;;;;;4.39;79.73;100571.66;10208926;28;20046;-68
2021/01/01 14:09:03;;;;;;;39.42;24.88;;;;;;;4.49;79.30;100580.78;10190567;28;20045;-66
2021/01/01 14:14:02;;;;;;;40.30;25.33;;;;;;;4.32;78.89;100586.59;10223415;28;20472;-66
2021/01/01 14:19:04;;;;;;;37.03;22.48;;;;;;;4.21;79.66;100588.53;10203721;28;20041;-67
2021/01/01 14:24:04;;;;;;;40.37;23.43;;;;;;;4.16;79.79;100583.94;10203233;28;20045;-67
2021/01/01 14:29:03;;;;;;;42.25;22.02;;;;;;;4.26;79.60;100593.91;10201256;28;20520;-65
2021/01/01 14:33:59;;;;;;;39.70;22.88;;;;;;;4.33;79.37;100589.00;10205904;28;20103;-69
2021/01/01 14:38:55;;;;;;;41.38;22.55;;;;;;;4.33;79.47;100591.69;10204855;28;20051;-66
2021/01/01 14:43:51;;;;;;;35.67;23.35;;;;;;;4.33;79.04;100593.59;10217154;28;20063;-67
2021/01/01 14:48:49;;;;;;;34.60;19.80;;;;;;;4.34;78.63;100590.63;10196869;28;20092;-68
2021/01/01 14:53:49;;;;;;;33.25;19.98;;;;;;;4.28;78.64;100594.44;10203090;28;20045;-66
2021/01/01 14:58:46;;;;;;;38.75;21.05;;;;;;;4.30;79.42;100605.00;10215901;28;20049;-67
2021/01/01 15:03:43;;;;;;;34.65;19.67;;;;;;;4.27;78.85;100605.53;10210360;28;20057;-65
2021/01/01 15:08:39;;;;;;;35.67;19.65;;;;;;;4.26;79.19;100610.16;10211948;28;20052;-67
2021/01/01 15:13:35;;;;;;;30.52;18.95;;;;;;;4.36;79.10;100614.69;10216867;28;20054;-62
2021/01/01 15:18:31;;;;;;;31.52;18.63;;;;;;;4.30;79.16;100613.91;10211025;28;20063;-67
2021/01/01 15:23:27;;;;;;;35.58;20.27;;;;;;;4.35;79.65;100619.31;10212042;28;20521;-65
2021/01/01 15:28:23;;;;;;;33.50;19.42;;;;;;;4.34;79.56;100628.53;10217786;28;20045;-67
2021/01/01 15:33:19;;;;;;;32.90;19.33;;;;;;;4.34;79.38;100631.22;10198017;28;20693;-68
2021/01/01 15:38:16;;;;;;;34.05;19.50;;;;;;;4.35;79.37;100637.44;10199968;28;20464;-67
2021/01/01 15:43:12;;;;;;;33.85;20.17;;;;;;;4.45;79.28;100640.09;10219547;28;20080;-67
2021/01/01 15:48:08;;;;;;;39.58;23.08;;;;;;;4.33;80.49;100632.31;10227820;28;20048;-67
2021/01/01 15:53:04;;;;;;;36.78;23.00;;;;;;;4.35;80.26;100640.97;10208080;28;20046;-67
2021/01/01 15:58:00;;;;;;;39.22;22.05;;;;;;;4.41;80.59;100642.56;10213393;28;20041;-67
2021/01/01 16:02:56;;;;;;;37.97;21.95;;;;;;;4.45;80.98;100639.28;10202279;28;20049;-64
2021/01/01 16:07:53;;;;;;;36.45;21.67;;;;;;;4.47;80.97;100642.53;10217670;28;20052;-64
2021/01/01 16:12:49;;;;;;;45.35;23.70;;;;;;;4.38;80.93;100651.22;10208404;28;20424;-66
2021/01/01 16:17:46;;;;;;;41.50;24.23;;;;;;;4.37;80.93;100651.53;10205184;28;20179;-66
2021/01/01 16:22:42;;;;;;;43.72;25.35;;;;;;;4.35;80.87;100645.56;10211512;28;20436;-64
2021/01/01 16:27:38;;;;;;;42.75;26.48;;;;;;;4.26;81.20;100658.88;10206974;28;20561;-66
2021/01/01 16:32:35;;;;;;;44.45;25.35;;;;;;;4.21;81.31;100648.06;10186171;28;20056;-67
2021/01/01 16:37:31;;;;;;;43.63;26.33;;;;;;;4.26;81.32;100642.63;10193738;28;20079;-67
2021/01/01 16:42:27;;;;;;;44.88;24.75;;;;;;;4.17;81.15;100645.09;10210088;28;20804;-66
2021/01/01 16:47:23;;;;;;;38.95;23.33;;;;;;;4.13;81.83;100648.63;10195947;28;20045;-66
2021/01/01 16:52:19;;;;;;;45.97;26.42;;;;;;;4.29;81.02;100652.88;10207714;28;20045;-67
2021/01/01 16:57:17;;;;;;;39.95;23.45;;;;;;;4.14;80.87;100650.25;10185098;28;20413;-67
2021/01/01 17:02:13;;;;;;;43.10;25.98;;;;;;;4.34;80.84;100657.47;10199689;28;20049;-68
2021/01/01 17:07:09;;;;;;;45.35;24.75;;;;;;;4.29;80.30;100647.47;10181956;28;20806;-67
2021/01/01 17:12:06;;;;;;;41.80;25.02;;;;;;;4.26;80.58;100664.28;10198992;28;20074;-68
2021/01/01 17:17:02;;;;;;;40.42;23.25;;;;;;;4.26;81.21;100656.16;10198648;28;20045;-68
2021/01/01 17:22:01;;;;;;;43.83;24.10;;;;;;;4.27;80.59;100665.91;10197856;28;20054;-68
2021/01/01 17:27:12;;;;;;;41.75;24.25;;;;;;;4.19;80.98;100677.28;10206358;28;20052;-68
2021/01/01 17:32:09;;;;;;;41.22;24.80;;;;;;;4.12;81.22;100668.66;10174631;28;20136;-67
2021/01/01 17:37:06;;;;;;;43.15;23.42;;;;;;;4.16;81.77;100669.75;10179759;28;20675;-67
2021/01/01 17:42:09;;;;;;;39.55;25.25;;;;;;;4.11;81.69;100672.47;10198718;28;20048;-66
2021/01/01 17:47:06;;;;;;;39.75;23.85;;;;;;;4.12;82.75;100674.88;10185590;28;20045;-66
2021/01/01 17:52:09;;;;;;;44.47;26.27;;;;;;;4.16;81.47;100683.28;10192259;28;20136;-66
2021/01/01 17:57:06;;;;;;;43.87;25.47;;;;;;;4.02;81.75;100679.53;10186019;28;20148;-66
2021/01/01 18:02:04;;;;;;;41.38;26.45;;;;;;;4.13;81.27;100687.34;10198143;28;20460;-68
2021/01/01 18:07:00;;;;;;;43.85;26.98;;;;;;;4.18;81.66;100689.22;10175280;28;20045;-66
2021/01/01 18:11:56;;;;;;;47.42;26.42;;;;;;;4.16;81.55;100691.38;10185501;28;20096;-66
2021/01/01 18:16:54;;;;;;;45.22;26.67;;;;;;;4.11;81.50;100699.53;10189774;28;20045;-66
2021/01/01 18:21:52;;;;;;;48.53;28.13;;;;;;;4.11;81.68;100704.94;10176282;28;20137;-66
2021/01/01 18:26:51;;;;;;;50.85;28.23;;;;;;;4.13;81.49;100691.91;10198985;28;20044;-66
2021/01/01 18:31:53;;;;;;;47.88;29.23;;;;;;;4.11;81.61;100705.75;10178043;28;20057;-66
2021/01/01 18:36:52;;;;;;;47.75;29.80;;;;;;;4.04;82.36;100712.50;10188386;28;20049;-66
2021/01/01 18:41:51;;;;;;;53.38;30.20;;;;;;;4.04;81.94;100709.81;10203558;28;20053;-65
2021/01/01 18:47:00;;;;;;;56.92;30.42;;;;;;;3.99;82.33;100714.16;10209878;28;20792;-66
2021/01/01 18:51:58;;;;;;;58.33;30.80;;;;;;;3.96;83.17;100724.72;10214765;28;20433;-66
2021/01/01 18:57:14;;;;;;;57.05;32.70;;;;;;;4.04;82.97;100716.03;10192034;28;20145;-65
2021/01/01 19:02:35;;;;;;;59.38;31.88;;;;;;;3.84;83.13;100716.88;10208395;28;20421;-67
2021/01/01 19:07:32;;;;;;;64.40;35.65;;;;;;;3.68;83.19;100726.91;10169773;28;20096;-65
2021/01/01 19:12:28;;;;;;;65.03;32.10;;;;;;;3.83;83.36;100736.91;10212696;28;20501;-65
2021/01/01 19:17:32;;;;;;;66.78;33.83;;;;;;;3.75;83.00;100742.84;10197669;28;20049;-65
2021/01/01 19:22:32;;;;;;;;;;;;;;;3.58;83.97;100735.81;10205432;28;20104;-67
2021/01/01 19:27:46;;;;;;;67.78;34.42;;;;;;;3.71;83.45;100750.72;10199306;28;19926;-66
2021/01/01 19:33:03;;;;;;;;;;;;;;;3.80;83.08;100746.34;10200988;28;20157;-66
2021/01/01 19:38:14;;;;;;;69.22;36.33;;;;;;;3.75;83.45;100750.97;10207623;28;20005;-66
2021/01/01 19:43:24;;;;;;;68.43;37.35;;;;;;;3.79;83.42;100760.16;10202129;28;20049;-67
2021/01/01 19:48:49;;;;;;;69.78;36.83;;;;;;;3.68;83.68;100761.25;10172480;28;20053;-66
2021/01/01 19:54:30;;;;;;;69.70;39.45;;;;;;;3.68;83.92;100767.47;10185105;28;20052;-65
2021/01/01 19:59:33;;;;;;;72.68;38.60;;;;;;;3.68;83.10;100762.06;10162323;28;20049;-67
2021/01/01 20:04:35;;;;;;;69.57;37.75;;;;;;;3.67;83.10;100781.28;10194184;28;20065;-65
2021/01/01 20:09:38;;;;;;;80.00;41.78;;;;;;;3.71;83.31;100790.44;10197999;28;20045;-67
2021/01/01 20:14:34;;;;;;;72.43;40.70;;;;;;;3.72;82.76;100792.09;10193540;28;20426;-66
2021/01/01 20:19:32;;;;;;;81.72;42.90;;;;;;;3.72;83.05;100790.19;10203100;28;20515;-66
2021/01/01 20:24:35;;;;;;;67.65;40.15;;;;;;;3.90;82.84;100796.13;10193075;28;20135;-65
2021/01/01 20:29:36;;;;;;;77.83;42.57;;;;;;;3.79;82.52;100800.72;10203837;28;20041;-65
2021/01/01 20:34:40;;;;;;;76.30;42.58;;;;;;;3.84;82.83;100803.44;10184707;28;20172;-65
2021/01/01 20:40:08;;;;;;;76.05;41.58;;;;;;;3.85;82.88;100805.03;10203333;28;20089;-66
2021/01/01 20:45:08;;;;;;;72.97;40.08;;;;;;;3.91;82.82;100808.56;10202296;28;20083;-66
2021/01/01 21:00:46;;;;;;;72.32;41.30;;;;;;;3.95;82.33;100810.47;10200601;28;20471;-66
2021/01/01 21:05:48;;;;;;;69.82;40.83;;;;;;;3.92;82.28;100816.44;10186318;28;20115;-66
2021/01/01 21:11:29;;;;;;;72.15;41.85;;;;;;;3.89;83.03;100822.34;10201711;28;20068;-67
2021/01/01 21:17:04;;;;;;;70.85;39.40;;;;;;;3.85;82.90;100825.88;10153678;28;20107;-65
2021/01/01 21:22:41;;;;;;;75.63;41.72;;;;;;;3.85;83.20;100836.69;10182503;28;20115;-67
2021/01/01 21:28:05;;;;;;;73.35;40.90;;;;;;;3.85;83.00;100837.50;10202732;28;20047;-65
2021/01/01 21:33:42;;;;;;;74.40;38.97;;;;;;;3.80;82.72;100834.78;10194358;28;20140;-65
2021/01/01 21:39:04;;;;;;;75.35;39.13;;;;;;;3.76;83.17;100833.72;10194332;28;20072;-67
2021/01/01 21:44:28;;;;;;;64.13;36.97;;;;;;;3.86;83.33;100843.75;10209480;28;20053;-66
2021/01/01 21:49:47;;;;;;;65.40;36.10;;;;;;;3.89;82.82;100837.78;10202289;28;20095;-65
2021/01/01 21:54:44;;;;;;;71.38;37.15;;;;;;;3.77;83.24;100846.97;10205888;28;20061;-67
2021/01/01 21:59:40;;;;;;;71.25;36.47;;;;;;;3.93;83.09;100844.28;10222038;28;20081;-66
2021/01/01 22:04:37;;;;;;;64.72;37.05;;;;;;;3.82;82.99;100848.88;10218531;28;20057;-65
2021/01/01 22:09:35;;;;;;;64.40;36.53;;;;;;;3.91;82.96;100841.84;10201724;28;20046;-67
2021/01/01 22:14:31;;;;;;;63.35;36.13;;;;;;;3.93;83.06;100860.53;10218266;28;20053;-67
2021/01/01 22:19:27;;;;;;;59.40;33.55;;;;;;;3.91;83.31;100858.06;10206443;28;20045;-65
2021/01/01 22:24:25;;;;;;;66.25;35.80;;;;;;;3.87;83.54;100856.97;10198507;28;20057;-67
2021/01/01 22:29:22;;;;;;;68.53;37.15;;;;;;;3.67;84.55;100862.38;10205938;28;20043;-65
2021/01/01 22:34:19;;;;;;;71.25;36.85;;;;;;;3.68;84.43;100864.81;10225026;28;20050;-65
2021/01/01 22:39:17;;;;;;;64.10;33.88;;;;;;;3.63;84.67;100861.28;10211676;28;20573;-67
2021/01/01 22:44:14;;;;;;;65.25;34.30;;;;;;;3.73;84.27;100872.13;10217540;28;20505;-66
2021/01/01 22:49:09;;;;;;;71.30;37.08;;;;;;;3.72;84.22;100876.72;10217538;28;20065;-67
2021/01/01 22:54:05;;;;;;;67.47;35.00;;;;;;;3.68;84.85;100886.44;10204221;28;20127;-67
2021/01/01 22:59:05;;;;;;;62.63;34.70;;;;;;;3.68;84.25;100880.22;10212712;28;20033;-66
2021/01/01 23:04:03;;;;;;;61.50;36.70;;;;;;;3.70;85.01;100878.06;10181530;28;20161;-67
2021/01/01 23:09:02;;;;;;;66.38;35.45;;;;;;;3.72;84.82;100881.31;10209571;28;20069;-67
2021/01/01 23:14:00;;;;;;;70.65;36.35;;;;;;;3.71;84.79;100893.19;10200568;28;20042;-66
2021/01/01 23:19:04;;;;;;;70.85;37.60;;;;;;;3.77;84.52;100900.25;10226617;28;20048;-66
2021/01/01 23:24:06;;;;;;;68.18;37.10;;;;;;;3.86;84.28;100890.53;10223482;28;20053;-67
2021/01/01 23:29:15;;;;;;;64.18;37.15;;;;;;;3.88;84.02;100895.69;10227491;28;20069;-67
2021/01/01 23:34:39;;;;;;;64.75;35.88;;;;;;;3.92;84.22;100894.88;10230385;28;20150;-67
2021/01/01 23:40:14;;;;;;;70.23;37.73;;;;;;;3.81;85.01;100898.66;10232148;28;20103;-67
2021/01/01 23:45:14;;;;;;;67.00;36.75;;;;;;;3.87;84.33;100894.84;10188192;28;20886;-67
2021/01/01 23:50:12;;;;;;;65.20;33.92;;;;;;;3.89;83.39;100892.69;10233792;28;20046;-67
2021/01/01 23:55:09;;;;;;;65.43;34.47;;;;;;;3.79;83.65;100892.69;10212426;28;20494;-66
